createdAt,value
2018-07-23T00:00:41.332Z,6.05
2018-07-23T00:04:05.831Z,7.50
2018-07-23T00:07:30.307Z,6.10
2018-07-23T00:10:54.751Z,6.87
2018-07-23T00:14:19.217Z,7.15
2018-07-23T00:17:43.661Z,7.35
2018-07-23T00:21:08.154Z,6.90
2018-07-23T00:24:32.621Z,7.45
2018-07-23T00:27:57.114Z,8.30
2018-07-23T00:31:21.557Z,7.62
2018-07-23T00:34:46.035Z,8.30
2018-07-23T00:38:10.497Z,8.48
2018-07-23T00:41:34.948Z,8.65
2018-07-23T00:44:59.427Z,9.40
2018-07-23T00:48:23.885Z,9.63
2018-07-23T00:51:48.353Z,9.45
2018-07-23T00:55:12.802Z,9.00
2018-07-23T00:58:37.339Z,10.60
2018-07-23T01:02:01.772Z,9.35
2018-07-23T01:05:26.220Z,8.93
2018-07-23T01:08:50.691Z,9.50
2018-07-23T01:12:33.320Z,10.35
2018-07-23T01:15:57.788Z,10.15
2018-07-23T01:19:22.309Z,10.68
2018-07-23T01:22:46.780Z,11.30
2018-07-23T01:26:11.219Z,11.35
2018-07-23T01:29:35.688Z,10.88
2018-07-23T01:33:00.163Z,11.45
2018-07-23T01:36:24.616Z,10.25
2018-07-23T01:39:49.078Z,12.65
2018-07-23T01:43:13.529Z,11.03
2018-07-23T01:46:37.992Z,12.35
2018-07-23T01:50:02.432Z,12.10
2018-07-23T01:53:26.890Z,13.53
2018-07-23T01:56:51.397Z,12.33
2018-07-23T02:00:15.864Z,11.63
2018-07-23T02:03:41.464Z,11.90
2018-07-23T02:07:06.882Z,12.18
2018-07-23T02:10:31.400Z,10.45
2018-07-23T02:13:55.871Z,10.98
2018-07-23T02:17:20.305Z,11.43
2018-07-23T02:20:44.814Z,12.58
2018-07-23T02:24:09.323Z,12.05
2018-07-23T02:27:33.956Z,12.50
2018-07-23T02:30:58.422Z,13.03
2018-07-23T02:34:22.867Z,13.43
2018-07-23T02:37:47.339Z,13.28
2018-07-23T02:41:11.875Z,14.78
2018-07-23T02:44:36.359Z,15.70
2018-07-23T02:48:00.838Z,15.65
2018-07-23T02:51:25.300Z,15.65
2018-07-23T02:54:49.752Z,17.35
2018-07-23T02:58:14.232Z,17.35
2018-07-23T03:01:38.743Z,16.90
2018-07-23T03:05:03.227Z,17.52
2018-07-23T03:08:27.688Z,17.95
2018-07-23T03:11:52.129Z,16.55
2018-07-23T03:15:16.620Z,17.15
2018-07-23T03:18:41.123Z,16.37
2018-07-23T03:22:05.581Z,17.77
2018-07-23T03:25:30.045Z,17.12
2018-07-23T03:28:54.474Z,16.37
2018-07-23T03:32:18.910Z,18.05
2018-07-23T03:35:43.366Z,17.85
2018-07-23T03:39:10.016Z,18.02
2018-07-23T03:42:34.478Z,16.95
2018-07-23T03:45:58.972Z,17.90
2018-07-23T03:49:23.434Z,15.72
2018-07-23T03:52:47.954Z,17.52
2018-07-23T03:56:12.447Z,18.45
2018-07-23T03:59:36.942Z,18.80
2018-07-23T04:03:01.404Z,18.40
2018-07-23T04:06:25.862Z,17.62
2018-07-23T04:09:50.317Z,17.62
2018-07-23T04:13:14.772Z,18.80
2018-07-23T04:16:39.228Z,18.50
2018-07-23T04:20:03.836Z,16.77
2018-07-23T04:23:28.287Z,17.70
2018-07-23T04:26:52.856Z,16.80
2018-07-23T04:30:17.328Z,17.48
2018-07-23T04:33:41.789Z,17.07
2018-07-23T04:37:06.285Z,18.25
2018-07-23T04:40:30.788Z,17.15
2018-07-23T04:43:55.267Z,16.23
2018-07-23T04:47:19.705Z,18.32
2018-07-23T04:50:44.203Z,20.68
2018-07-23T04:54:08.707Z,19.90
2018-07-23T04:57:33.296Z,20.95
2018-07-23T05:00:57.943Z,22.82
2018-07-23T05:04:22.406Z,19.65
2018-07-23T05:07:46.924Z,22.22
2018-07-23T05:11:11.363Z,19.70
2018-07-23T05:14:35.859Z,20.70
2018-07-23T05:18:00.334Z,22.20
2018-07-23T05:21:24.847Z,22.25
2018-07-23T05:24:49.313Z,20.17
2018-07-23T05:28:13.809Z,18.30
2018-07-23T05:31:38.315Z,21.10
2018-07-23T05:35:02.835Z,18.70
2018-07-23T05:38:27.125Z,19.17
2018-07-23T05:41:51.607Z,19.15
2018-07-23T05:45:16.180Z,17.45
2018-07-23T05:48:40.639Z,15.32
2018-07-23T05:52:05.114Z,13.32
2018-07-23T05:55:29.558Z,15.15
2018-07-23T05:58:54.080Z,17.73
2018-07-23T06:02:18.543Z,16.05
2018-07-23T06:05:43.032Z,14.10
2018-07-23T06:09:09.832Z,14.28
2018-07-23T06:13:08.426Z,14.80
2018-07-23T06:16:33.124Z,21.42
2018-07-23T06:19:57.606Z,20.82
2018-07-23T06:23:22.077Z,20.72
2018-07-23T06:26:46.556Z,20.95
2018-07-23T06:30:12.248Z,20.35
2018-07-23T06:33:36.787Z,17.45
2018-07-23T06:37:01.273Z,18.05
2018-07-23T06:40:25.755Z,15.43
2018-07-23T06:43:50.221Z,10.93
2018-07-23T06:47:14.677Z,12.05
2018-07-23T06:50:39.256Z,11.93
2018-07-23T06:54:03.776Z,12.68
2018-07-23T06:57:28.291Z,11.97
2018-07-23T07:00:52.770Z,12.28
2018-07-23T07:04:20.245Z,9.95
2018-07-23T07:07:44.699Z,9.88
2018-07-23T07:11:09.187Z,8.75
2018-07-23T07:14:33.668Z,6.67
2018-07-23T07:17:58.186Z,6.90
2018-07-23T07:21:22.703Z,6.87
2018-07-23T07:24:47.199Z,7.12
2018-07-23T07:28:11.723Z,7.12
2018-07-23T07:31:36.250Z,5.53
2018-07-23T07:35:00.693Z,6.80
2018-07-23T07:38:25.262Z,7.03
2018-07-23T07:41:49.683Z,6.42
2018-07-23T07:45:14.178Z,6.62
2018-07-23T07:48:38.667Z,5.83
2018-07-23T07:52:03.217Z,5.28
2018-07-23T07:55:27.664Z,5.17
2018-07-23T07:58:52.169Z,4.87
2018-07-23T08:02:16.686Z,5.72
2018-07-23T08:05:41.147Z,5.05
2018-07-23T08:09:08.638Z,5.37
2018-07-23T08:12:33.171Z,5.83
2018-07-23T08:15:57.590Z,5.97
2018-07-23T08:19:22.085Z,5.20
2018-07-23T08:22:46.549Z,7.58
2018-07-23T08:26:10.992Z,8.13
2018-07-23T08:29:35.499Z,7.78
2018-07-23T08:33:00.012Z,7.08
2018-07-23T08:36:24.494Z,7.45
2018-07-23T08:39:48.975Z,10.43
2018-07-23T08:43:13.424Z,11.65
2018-07-23T08:46:37.885Z,8.25
2018-07-23T08:50:02.339Z,9.78
2018-07-23T08:53:30.337Z,8.78
2018-07-23T08:56:54.790Z,9.50
2018-07-23T09:00:19.282Z,6.67
2018-07-23T09:03:43.722Z,8.50
2018-07-23T09:07:08.142Z,8.60
2018-07-23T09:10:32.627Z,9.10
2018-07-23T09:13:57.121Z,11.73
2018-07-23T09:17:21.577Z,9.50
2018-07-23T09:20:46.012Z,7.85
2018-07-23T09:24:10.472Z,11.88
2018-07-23T09:27:35.111Z,10.82
2018-07-23T09:30:59.657Z,11.28
2018-07-23T09:34:24.023Z,10.60
2018-07-23T09:37:48.492Z,8.40
2018-07-23T09:41:12.929Z,11.03
2018-07-23T09:44:37.400Z,13.85
2018-07-23T09:48:01.872Z,10.13
2018-07-23T09:51:26.419Z,13.75
2018-07-23T09:54:50.870Z,13.68
2018-07-23T09:58:15.326Z,12.05
2018-07-23T10:01:39.839Z,11.30
2018-07-23T10:05:04.467Z,12.33
2018-07-23T10:08:28.942Z,14.13
2018-07-23T10:11:53.464Z,16.60
2018-07-23T10:15:17.958Z,16.70
2018-07-23T10:18:42.446Z,14.45
2018-07-23T10:22:07.001Z,15.72
2018-07-23T10:25:31.447Z,15.25
2018-07-23T10:28:55.919Z,15.15
2018-07-23T10:32:20.373Z,11.03
2018-07-23T10:35:44.959Z,13.13
2018-07-23T10:39:10.386Z,9.53
2018-07-23T10:42:34.908Z,9.05
2018-07-23T10:45:59.394Z,10.88
2018-07-23T10:49:23.849Z,11.75
2018-07-23T10:52:48.365Z,10.35
2018-07-23T10:56:12.843Z,13.53
2018-07-23T10:59:37.346Z,11.57
2018-07-23T11:03:01.811Z,9.40
2018-07-23T11:06:26.355Z,8.48
2018-07-23T11:09:50.839Z,7.62
2018-07-23T11:13:15.300Z,8.50
2018-07-23T11:16:39.784Z,8.40
2018-07-23T11:20:04.376Z,7.58
2018-07-23T11:23:28.867Z,7.92
2018-07-23T11:26:53.534Z,8.15
2018-07-23T11:30:18.032Z,9.13
2018-07-23T11:33:42.527Z,7.95
2018-07-23T11:37:06.999Z,6.53
2018-07-23T11:40:31.508Z,8.63
2018-07-23T11:43:55.939Z,6.12
2018-07-23T11:47:20.395Z,7.17
2018-07-23T11:50:44.909Z,6.60
2018-07-23T11:54:12.496Z,5.30
2018-07-23T11:57:36.949Z,6.45
2018-07-23T12:01:01.737Z,6.03
2018-07-23T12:04:26.269Z,7.33
2018-07-23T12:07:50.649Z,6.70
2018-07-23T12:11:15.116Z,7.53
2018-07-23T12:14:39.521Z,7.20
2018-07-23T12:18:03.991Z,6.90
2018-07-23T12:21:28.452Z,7.25
2018-07-23T12:24:52.909Z,6.83
2018-07-23T12:28:17.529Z,6.50
2018-07-23T12:31:41.978Z,6.33
2018-07-23T12:35:06.583Z,6.35
2018-07-23T12:38:31.050Z,7.30
2018-07-23T12:41:55.563Z,7.17
2018-07-23T12:45:20.053Z,6.25
2018-07-23T12:48:44.547Z,7.58
2018-07-23T12:52:09.180Z,5.62
2018-07-23T12:55:33.725Z,5.70
2018-07-23T12:58:58.263Z,7.83
2018-07-23T13:02:22.704Z,6.83
2018-07-23T13:05:47.192Z,8.33
2018-07-23T13:09:13.034Z,7.33
2018-07-23T13:12:37.511Z,7.37
2018-07-23T13:16:01.994Z,7.22
2018-07-23T13:19:26.474Z,6.37
2018-07-23T13:22:50.946Z,6.62
2018-07-23T13:26:15.478Z,6.33
2018-07-23T13:29:39.974Z,6.40
2018-07-23T13:33:04.439Z,6.92
2018-07-23T13:36:28.917Z,7.53
2018-07-23T13:39:53.432Z,6.20
2018-07-23T13:43:17.953Z,7.75
2018-07-23T13:46:42.501Z,7.20
2018-07-23T13:50:07.096Z,6.83
2018-07-23T13:53:31.608Z,6.80
2018-07-23T13:56:55.803Z,7.53
2018-07-23T14:00:20.342Z,6.45
2018-07-23T14:03:44.892Z,6.62
2018-07-23T14:07:09.393Z,6.28
2018-07-23T14:10:33.906Z,8.53
2018-07-23T14:13:58.377Z,7.10
2018-07-23T14:17:22.908Z,7.67
2018-07-23T14:20:47.445Z,6.35
2018-07-23T14:24:11.936Z,6.75
2018-07-23T14:27:36.418Z,7.20
2018-07-23T14:31:00.903Z,5.80
2018-07-23T14:34:25.399Z,6.67
2018-07-23T14:37:49.901Z,7.03
2018-07-23T14:41:14.421Z,7.00
2018-07-23T14:44:38.909Z,6.58
2018-07-23T14:48:03.413Z,4.85
2018-07-23T14:51:28.028Z,6.30
2018-07-23T14:54:52.489Z,6.17
2018-07-23T14:58:17.042Z,5.95
2018-07-23T15:01:41.540Z,7.83
2018-07-23T15:05:06.535Z,5.97
2018-07-23T15:08:31.039Z,6.75
2018-07-23T15:11:55.537Z,6.33
2018-07-23T15:15:20.021Z,6.42
2018-07-23T15:18:44.501Z,6.35
2018-07-23T15:22:09.069Z,6.40
2018-07-23T15:25:33.564Z,6.28
2018-07-23T15:28:58.065Z,6.35
2018-07-23T15:32:22.511Z,5.75
2018-07-23T15:35:46.989Z,5.90
2018-07-23T15:39:11.877Z,5.58
2018-07-23T15:42:36.386Z,5.45
2018-07-23T15:46:00.941Z,6.97
2018-07-23T15:49:25.347Z,5.53
2018-07-23T15:52:49.865Z,5.67
2018-07-23T15:56:14.560Z,6.30
2018-07-23T15:59:39.021Z,5.53
2018-07-23T16:03:03.486Z,5.50
2018-07-23T16:06:28.013Z,5.50
2018-07-23T16:09:52.520Z,5.72
2018-07-23T16:13:17.011Z,5.78
2018-07-23T16:16:41.477Z,6.00
2018-07-23T16:20:06.603Z,8.50
2018-07-23T16:23:31.032Z,6.10
2018-07-23T16:26:55.440Z,5.42
2018-07-23T16:30:19.843Z,6.70
2018-07-23T16:33:44.367Z,5.40
2018-07-23T16:37:08.849Z,6.97
2018-07-23T16:40:33.387Z,6.92
2018-07-23T16:43:57.896Z,5.58
2018-07-23T16:47:22.355Z,5.97
2018-07-23T16:50:46.783Z,6.70
2018-07-23T16:54:11.284Z,5.90
2018-07-23T16:57:35.775Z,7.92
2018-07-23T17:01:00.245Z,6.42
2018-07-23T17:04:24.672Z,6.30
2018-07-23T17:07:49.125Z,5.87
2018-07-23T17:11:13.538Z,5.95
2018-07-23T17:14:38.002Z,5.67
2018-07-23T17:18:02.518Z,5.80
2018-07-23T17:21:26.900Z,4.87
2018-07-23T17:24:51.334Z,5.58
2018-07-23T17:28:15.756Z,4.87
2018-07-23T17:31:40.254Z,4.92
2018-07-23T17:35:04.745Z,5.22
2018-07-23T17:38:29.170Z,5.10
2018-07-23T17:41:53.611Z,5.25
2018-07-23T17:45:18.056Z,5.42
2018-07-23T17:48:42.490Z,5.12
2018-07-23T17:52:06.976Z,5.28
2018-07-23T17:55:31.397Z,4.92
2018-07-23T17:58:55.978Z,5.10
2018-07-23T18:02:20.578Z,5.00
2018-07-23T18:05:45.040Z,4.70
2018-07-23T18:09:11.734Z,4.47
2018-07-23T18:12:36.156Z,7.22
2018-07-23T18:16:00.602Z,4.40
2018-07-23T18:19:31.588Z,5.72
2018-07-23T18:22:55.979Z,4.97
2018-07-23T18:26:20.427Z,4.25
2018-07-23T18:29:44.921Z,4.30
2018-07-23T18:33:09.342Z,4.62
2018-07-23T18:36:33.542Z,4.12
2018-07-23T18:39:57.973Z,5.00
2018-07-23T18:43:22.406Z,6.22
2018-07-23T18:46:46.894Z,5.53
2018-07-23T18:50:11.319Z,6.75
2018-07-23T18:53:35.758Z,6.58
2018-07-23T18:57:01.634Z,5.25
2018-07-23T19:00:26.076Z,5.03
2018-07-23T19:03:50.519Z,4.30
2018-07-23T19:07:14.972Z,4.45
2018-07-23T19:10:39.434Z,4.25
2018-07-23T19:14:03.962Z,4.75
2018-07-23T19:17:35.063Z,4.12
2018-07-23T19:20:59.519Z,3.80
2018-07-23T19:24:23.995Z,4.20
2018-07-23T19:27:48.444Z,5.03
2018-07-23T19:31:12.886Z,5.08
2018-07-23T19:34:37.359Z,4.20
2018-07-23T19:38:01.765Z,4.47
2018-07-23T19:41:26.967Z,4.47
2018-07-23T19:44:51.472Z,4.80
2018-07-23T19:48:15.956Z,4.40
2018-07-23T19:51:40.450Z,4.72
2018-07-23T19:55:05.054Z,4.83
2018-07-23T19:58:29.620Z,5.12
2018-07-23T20:01:54.078Z,4.78
2018-07-23T20:05:18.539Z,4.47
2018-07-23T20:08:43.796Z,4.55
2018-07-23T20:12:08.321Z,5.00
2018-07-23T20:15:32.749Z,4.65
2018-07-23T20:18:57.271Z,5.22
2018-07-23T20:22:21.710Z,4.47
2018-07-23T20:25:46.224Z,5.25
2018-07-23T20:29:10.672Z,4.78
2018-07-23T20:32:35.132Z,4.87
2018-07-23T20:35:59.571Z,5.10
2018-07-23T20:39:24.099Z,5.60
2018-07-23T20:42:48.548Z,6.22
2018-07-23T20:46:13.008Z,6.50
2018-07-23T20:49:37.469Z,6.25
2018-07-23T20:53:01.911Z,6.58
2018-07-23T20:56:26.408Z,6.10
2018-07-23T20:59:50.858Z,6.65
2018-07-23T21:03:15.290Z,5.78
2018-07-23T21:06:39.758Z,6.72
2018-07-23T21:10:04.329Z,6.30
2018-07-23T21:13:28.761Z,6.42
2018-07-23T21:16:53.242Z,6.62
2018-07-23T21:20:17.761Z,7.47
2018-07-23T21:23:42.272Z,7.50
2018-07-23T21:27:06.772Z,7.83
2018-07-23T21:30:31.241Z,7.90
2018-07-23T21:33:55.703Z,7.50
2018-07-23T21:37:20.160Z,7.97
2018-07-23T21:40:44.574Z,7.15
2018-07-23T21:44:09.057Z,7.45
2018-07-23T21:47:33.529Z,7.58
2018-07-23T21:50:57.999Z,7.03
2018-07-23T21:54:22.521Z,8.20
2018-07-23T21:57:46.949Z,7.65
2018-07-23T22:01:11.447Z,8.88
2018-07-23T22:04:35.970Z,8.38
2018-07-23T22:08:00.445Z,8.68
2018-07-23T22:11:24.900Z,10.18
2018-07-23T22:14:49.372Z,8.83
2018-07-23T22:18:13.810Z,8.25
2018-07-23T22:21:38.287Z,10.03
2018-07-23T22:25:02.741Z,10.23
2018-07-23T22:28:27.197Z,11.88
2018-07-23T22:31:51.698Z,96.67
2018-07-23T22:35:16.152Z,106.40
2018-07-23T22:38:40.630Z,101.25
2018-07-23T22:42:05.267Z,61.53
2018-07-23T22:45:29.712Z,32.53
2018-07-23T22:48:54.192Z,20.60
2018-07-23T22:52:18.651Z,16.48
2018-07-23T22:55:43.102Z,16.85
2018-07-23T22:59:07.554Z,25.40
2018-07-23T23:02:31.985Z,18.37
2018-07-23T23:05:56.465Z,15.45
2018-07-23T23:09:20.882Z,14.75
2018-07-23T23:12:45.366Z,15.18
2018-07-23T23:16:09.854Z,14.73
2018-07-23T23:19:34.283Z,14.73
2018-07-23T23:22:58.731Z,14.30
2018-07-23T23:26:23.196Z,15.55
2018-07-23T23:29:47.657Z,15.28
2018-07-23T23:33:12.122Z,14.18
2018-07-23T23:36:36.593Z,14.07
2018-07-23T23:40:01.056Z,15.50
2018-07-23T23:43:25.526Z,15.95
2018-07-23T23:46:50.011Z,13.98
2018-07-23T23:50:14.485Z,14.90
2018-07-23T23:53:38.665Z,14.90
2018-07-23T23:57:03.153Z,17.02
